Latest Weather Observations for Cape Willoughby

IDS60801

Issued at 4:01 pm CST Sunday 23 September 2018 (issued every 10 minutes, with the page automatically refreshed every 10 minutes)

About weather observations | Map of weather stations | Latest weather observations for SA | Other Formats
Station Details ID: 022803 Name: CAPE WILLOUGHBY Lat: -35.84 Lon: 138.13 Height: 55.0 m
Data from the previous 72 hours. | See also: Recent months at Cape Willoughby
Date/Time
CST
Temp
°C
App
Temp
°C
Dew
Point
°C
Rel
Hum
%
Delta-T
°C
Wind Press
QNH
hPa
Press
MSL
hPa
Rain since
9am
mm
Dir  Spd
km/h
Gust
km/h
Spd
kts
Gust
kts
23/04:00pm 12.7 6.3 7.0 68 2.7 SE 30 39 16 21 1031.7 1031.7 0.0
23/03:30pm 12.9 7.1 6.3 64 3.1 SSE 26 33 14 18 1031.9 1031.9 0.0
23/03:00pm 12.9 6.4 6.7 66 3.0 SE 30 37 16 20 1031.8 1031.8 0.0
23/02:30pm 12.9 6.5 7.1 68 2.8 SE 30 37 16 20 1031.8 1031.8 0.0
23/02:00pm 13.7 7.9 8.1 69 2.8 SE 28 35 15 19 1031.9 1031.9 0.0
23/01:30pm 13.7 8.5 7.2 65 3.1 SE 24 32 13 17 1032.0 1032.0 0.0
23/01:00pm 13.6 8.0 7.2 65 3.1 SE 26 30 14 16 1032.4 1032.4 0.0
23/12:30pm 13.9 8.7 7.4 65 3.2 SE 24 30 13 16 1032.6 1032.6 0.0
23/12:00pm 13.8 8.8 8.2 69 2.8 SE 24 32 13 17 1032.9 1032.9 0.0
23/11:30am 14.3 8.9 7.8 65 3.2 SE 26 30 14 16 1033.0 1033.0 0.0
23/11:00am 13.4 7.9 7.6 68 2.9 SE 26 33 14 18 1033.2 1033.2 0.0
23/10:30am 13.0 6.6 7.0 67 2.9 SE 30 37 16 20 1033.2 1033.2 0.0
23/10:00am 12.9 7.0 7.6 70 2.6 SE 28 35 15 19 1033.2 1033.2 0.0
23/09:30am 13.0 6.8 7.9 71 2.5 SE 30 35 16 19 1033.1 1033.1 0.0
23/09:00am 13.1 7.7 8.2 72 2.4 SSE 26 33 14 18 1033.0 1033.0 0.0
23/08:30am 12.9 7.9 8.0 72 2.4 SSE 24 32 13 17 1033.0 1033.0 0.0
23/08:00am 12.9 7.9 8.2 73 2.3 SSE 24 30 13 16 1032.7 1032.7 0.0
23/07:30am 12.6 7.3 8.5 76 2.0 SSE 26 32 14 17 1032.4 1032.4 0.0
23/07:00am 12.5 6.7 8.0 74 2.2 SSE 28 33 15 18 1032.0 1032.0 0.0
23/06:30am 12.5 6.9 8.8 78 1.8 SSE 28 33 15 18 1031.4 1031.4 0.0
23/06:00am 12.7 7.7 9.5 81 1.6 SSE 26 33 14 18 1031.1 1031.1 0.0
23/05:30am 12.7 7.7 9.7 82 1.5 SSE 26 32 14 17 1030.8 1030.8 0.0
23/05:00am 12.6 6.8 9.4 81 1.6 SSE 30 37 16 20 1030.2 1030.2 0.0
23/04:30am 12.9 7.0 10.4 85 1.3 SSE 32 39 17 21 1030.0 1030.0 0.0
23/04:00am 12.9 7.9 10.8 87 1.1 SSE 28 33 15 18 1029.7 1029.7 0.0
23/03:30am 13.2 8.3 11.3 88 1.0 S 28 33 15 18 1029.7 1029.7 0.0
23/03:00am 13.2 9.1 11.3 88 1.0 S 24 33 13 18 1029.7 1029.7 0.0
23/02:30am 13.3 8.9 11.7 90 0.8 S 26 33 14 18 1029.6 1029.6 0.0
23/02:00am 13.4 8.3 11.8 90 0.9 S 30 35 16 19 1029.4 1029.4 0.0
23/01:30am 13.7 10.7 12.4 92 0.7 S 20 30 11 16 1029.8 1029.8 0.0
23/01:00am 13.1 11.6 12.0 93 0.6 SSW 11 13 6 7 1030.2 1030.2 0.0
23/12:30am 12.8 11.2 11.5 92 0.7 SW 11 11 6 6 1030.2 1030.2 0.0
23/12:00am 12.9 11.7 11.6 92 0.7 SW 9 13 5 7 1030.0 1030.0 0.0
 
Date/Time
CST
Temp
°C
App
Temp
°C
Dew
Point
°C
Rel
Hum
%
Delta-T
°C
Wind Press
QNH
hPa
Press
MSL
hPa
Rain since
9am
mm
Dir  Spd
km/h
Gust
km/h
Spd
kts
Gust
kts
22/11:30pm 13.1 11.9 11.7 91 0.7 SW 9 15 5 8 1030.1 1030.1 0.0
22/11:00pm 13.6 12.9 12.0 90 0.9 SSW 7 11 4 6 1030.0 1030.0 0.0
22/10:30pm 13.7 12.6 12.1 90 0.9 S 9 13 5 7 1030.0 1030.0 0.0
22/10:00pm 13.8 12.3 12.0 89 1.0 S 11 17 6 9 1030.1 1030.1 0.0
22/09:30pm 13.7 11.0 11.8 88 1.0 SSW 17 19 9 10 1030.1 1030.1 0.0
22/09:00pm 13.8 11.9 11.8 88 1.1 SSW 13 20 7 11 1030.1 1030.1 0.0
22/08:30pm 13.8 11.9 11.8 88 1.1 S 13 17 7 9 1029.9 1029.9 0.0
22/08:00pm 13.7 11.4 11.6 87 1.1 S 15 19 8 10 1029.6 1029.6 0.0
22/07:30pm 14.0 12.2 12.2 89 1.0 S 13 19 7 10 1029.2 1029.2 0.0
22/07:00pm 13.8 11.5 11.8 88 1.1 SSW 15 22 8 12 1028.9 1028.9 0.0
22/06:30pm 14.1 11.9 12.1 88 1.1 SSW 15 19 8 10 1028.6 1028.6 0.0
22/06:00pm 14.2 11.1 12.1 87 1.1 SSW 20 26 11 14 1028.4 1028.4 0.0
22/05:30pm 14.5 11.6 12.4 87 1.1 SSW 19 24 10 13 1028.1 1028.1 0.0
22/05:00pm 14.6 12.9 12.5 87 1.1 SSW 13 19 7 10 1027.9 1027.9 0.0
22/04:30pm 14.4 12.5 11.9 85 1.3 SSW 13 20 7 11 1027.7 1027.7 0.0
22/04:00pm 14.4 12.9 11.9 85 1.4 S 11 17 6 9 1027.6 1027.6 0.0
22/03:30pm 14.6 12.0 11.9 84 1.5 S 17 20 9 11 1027.4 1027.4 0.0
22/03:00pm 14.8 12.2 11.9 83 1.6 S 17 20 9 11 1027.5 1027.5 0.0
22/02:30pm 14.7 12.0 11.7 82 1.6 S 17 20 9 11 1027.4 1027.4 0.0
22/02:00pm 15.0 14.2 11.8 81 1.7 SSE 7 9 4 5 1027.5 1027.5 0.0
22/01:30pm 15.1 14.6 12.2 83 1.6 SSE 6 9 3 5 1027.8 1027.8 0.0
22/01:00pm 15.0 13.5 11.8 81 1.7 S 11 13 6 7 1027.8 1027.8 0.0
22/12:30pm 15.3 14.7 12.4 83 1.6 S 7 9 4 5 1027.9 1027.9 0.0
22/12:00pm 14.6 13.5 12.1 85 1.3 S 9 9 5 5 1028.1 1028.1 0.0
22/11:30am 14.8 13.9 12.5 86 1.3 S 9 11 5 6 1028.1 1028.1 0.0
22/11:00am 14.2 13.1 11.9 86 1.2 S 9 11 5 6 1028.1 1028.1 0.0
22/10:30am 14.1 13.6 12.1 88 1.1 SSE 6 9 3 5 1028.0 1028.0 0.0
22/10:00am 14.1 14.0 12.0 87 1.1 SE 4 6 2 3 1028.2 1028.2 0.0
22/09:30am 14.2 14.1 12.1 87 1.1 S 4 9 2 5 1028.2 1028.2 0.0
22/09:00am 13.5 12.9 11.6 88 1.0 SSW 6 11 3 6 1028.6 1028.6 0.2
22/08:30am 13.4 11.8 11.5 88 1.0 SW 11 15 6 8 1028.1 1028.1 0.2
22/08:00am 13.2 11.4 10.9 86 1.2 SW 11 13 6 7 1028.1 1028.1 0.2
22/07:30am 12.9 11.6 11.1 89 0.9 SW 9 11 5 6 1027.7 1027.7 0.2
22/07:00am 12.5 12.4 10.7 89 0.9 SSW 2 4 1 2 1027.3 1027.3 0.2
22/06:30am 12.1 12.2 10.3 89 0.9 CALM 0 0 0 0 1027.0 1027.0 0.2
22/06:00am 11.9 12.0 10.1 89 0.9 CALM 0 0 0 0 1026.6 1026.6 0.2
22/05:30am 12.0 11.8 10.4 90 0.8 E 2 6 1 3 1026.6 1026.6 0.2
22/05:00am 11.9 11.7 10.3 90 0.8 NE 2 4 1 2 1026.1 1026.1 0.2
22/04:30am 11.9 11.3 10.3 90 0.8 NE 4 6 2 3 1025.8 1025.8 0.2
22/04:00am 12.0 11.5 10.6 91 0.7 NE 4 6 2 3 1025.6 1025.6 0.2
22/03:30am 11.6 10.5 10.0 90 0.8 NNE 6 7 3 4 1025.4 1025.4 0.2
22/03:00am 11.9 11.7 10.5 91 0.7 NNE 2 4 1 2 1025.8 1025.8 0.0
22/02:30am 11.7 10.7 10.3 91 0.7 N 6 7 3 4 1026.0 1026.0 0.0
22/02:00am 11.7 10.1 10.3 91 0.7 N 9 13 5 7 1026.3 1026.3 0.0
22/01:30am 12.1 10.2 10.5 90 0.8 N 11 13 6 7 1026.7 1026.7 0.0
22/01:00am 11.9 10.0 10.5 91 0.7 NNE 11 13 6 7 1026.8 1026.8 0.0
22/12:30am 12.0 11.0 10.4 90 0.8 NNE 6 7 3 4 1026.8 1026.8 0.0
22/12:00am 12.2 11.2 10.3 88 1.0 NNE 6 6 3 3 1027.0 1027.0 0.0
 
Date/Time
CST
Temp
°C
App
Temp
°C
Dew
Point
°C
Rel
Hum
%
Delta-T
°C
Wind Press
QNH
hPa
Press
MSL
hPa
Rain since
9am
mm
Dir  Spd
km/h
Gust
km/h
Spd
kts
Gust
kts
21/11:30pm 12.0 11.3 9.9 87 1.1 NNE 4 7 2 4 1027.2 1027.2 0.0
21/11:00pm 12.2 11.0 9.6 84 1.3 ENE 6 7 3 4 1027.2 1027.2 0.0
21/10:30pm 12.6 12.7 10.0 84 1.3 CALM 0 2 0 1 1027.5 1027.5 0.0
21/10:00pm 12.3 11.1 9.5 83 1.4 SSW 6 7 3 4 1027.8 1027.8 0.0
21/09:30pm 12.3 11.0 9.3 82 1.5 SW 6 7 3 4 1028.0 1028.0 0.0
21/09:00pm 12.6 11.4 9.6 82 1.5 SW 6 6 3 3 1027.8 1027.8 0.0
21/08:30pm 12.4 11.5 9.4 82 1.5 SW 4 6 2 3 1027.6 1027.6 0.0
21/08:00pm 12.8 11.7 9.8 82 1.5 SSW 6 7 3 4 1027.4 1027.4 0.0
21/07:30pm 12.3 10.9 9.0 80 1.6 WSW 6 7 3 4 1027.1 1027.1 0.0
21/07:00pm 12.4 11.1 9.1 80 1.7 WSW 6 7 3 4 1026.9 1026.9 0.0
21/06:30pm 12.7 11.2 9.2 79 1.8 W 7 13 4 7 1026.6 1026.6 0.0
21/06:00pm 12.8 11.0 9.4 80 1.7 NW 9 13 5 7 1026.4 1026.4 0.0
21/05:30pm 13.7 10.4 9.7 77 2.0 NNW 17 20 9 11 1026.1 1026.1 0.0
21/05:00pm 14.2 10.6 9.8 75 2.3 NNW 19 22 10 12 1025.8 1025.8 0.0
21/04:30pm 14.6 10.5 10.0 74 2.4 NNW 22 24 12 13 1025.7 1025.7 0.0
21/04:00pm 15.2 11.2 10.4 73 2.5 N 22 24 12 13 1025.7 1025.7 0.0
21/03:30pm 15.2 10.3 10.0 71 2.7 N 26 32 14 17 1025.8 1025.8 0.0
21/03:00pm 15.5 10.3 10.3 71 2.7 N 28 33 15 18 1025.9 1025.9 0.0
21/02:30pm 16.0 10.8 10.3 69 3.0 N 28 35 15 19 1026.0 1026.0 0.0
21/02:00pm 16.2 11.6 10.9 71 2.8 N 26 30 14 16 1026.1 1026.1 0.0
21/01:30pm 16.2 11.3 10.1 67 3.2 N 26 37 14 20 1026.5 1026.5 0.0
21/01:00pm 15.9 9.9 10.2 69 3.0 N 32 39 17 21 1027.0 1027.0 0.0
21/12:30pm 15.5 9.0 10.3 71 2.7 N 35 44 19 24 1027.4 1027.4 0.0
21/12:00pm 16.3 10.1 9.9 66 3.3 NNW 33 43 18 23 1027.7 1027.7 0.0
21/11:30am 16.4 10.3 9.8 65 3.4 N 32 44 17 24 1027.9 1027.9 0.0
21/11:00am 15.4 10.1 10.0 70 2.8 N 28 32 15 17 1028.1 1028.1 0.0
21/10:30am 15.1 10.1 9.7 70 2.8 N 26 32 14 17 1028.1 1028.1 0.0
21/10:00am 14.5 12.1 10.1 75 2.3 NW 13 20 7 11 1028.4 1028.4 0.0
21/09:30am 13.6 11.5 9.6 77 2.0 WNW 11 19 6 10 1028.4 1028.4 0.0
21/09:00am 13.3 11.6 9.9 80 1.7 WNW 9 15 5 8 1028.3 1028.3 0.0
21/08:30am 12.8 11.1 10.0 83 1.4 W 9 13 5 7 1028.1 1028.1 0.0
21/08:00am 12.5 10.4 9.9 84 1.3 WNW 11 15 6 8 1027.9 1027.9 0.0
21/07:30am 11.9 10.1 9.6 86 1.2 WNW 9 13 5 7 1027.7 1027.7 0.0
21/07:00am 11.6 9.5 9.7 88 1.0 WNW 11 15 6 8 1027.4 1027.4 0.0
21/06:30am 11.3 9.2 9.6 89 0.9 WNW 11 11 6 6 1027.0 1027.0 0.0
21/06:00am 11.0 7.7 9.4 90 0.8 WNW 17 28 9 15 1027.0 1027.0 0.0
21/05:30am 10.9 8.3 9.5 91 0.7 W 13 15 7 8 1026.8 1026.8 0.0
21/05:00am 10.8 8.7 9.6 92 0.6 W 11 13 6 7 1026.6 1026.6 0.0
21/04:30am 10.8 8.3 9.6 92 0.6 W 13 17 7 9 1026.3 1026.3 0.0
21/04:00am 10.8 7.8 9.4 91 0.7 W 15 17 8 9 1026.2 1026.2 0.0
21/03:30am 10.4 8.4 8.8 90 0.8 WNW 9 11 5 6 1026.0 1026.0 0.0
21/03:00am 10.5 7.0 8.9 90 0.8 W 17 19 9 10 1025.9 1025.9 0.0
21/02:30am 9.9 5.9 8.2 89 0.8 WNW 19 24 10 13 1026.1 1026.1 0.0
21/02:00am 10.1 5.6 8.4 89 0.8 W 22 26 12 14 1026.3 1026.3 0.0
21/01:30am 10.5 6.6 8.6 88 0.9 W 19 22 10 12 1026.5 1026.5 0.0
21/01:00am 10.8 7.0 9.1 89 0.8 W 19 24 10 13 1026.6 1026.6 0.0
21/12:30am 10.7 7.3 9.1 90 0.8 W 17 20 9 11 1026.5 1026.5 0.0
21/12:00am 11.1 7.4 9.4 89 0.8 WNW 19 20 10 11 1026.6 1026.6 0.0
 
Date/Time
CST
Temp
°C
App
Temp
°C
Dew
Point
°C
Rel
Hum
%
Delta-T
°C
Wind Press
QNH
hPa
Press
MSL
hPa
Rain since
9am
mm
Dir  Spd
km/h
Gust
km/h
Spd
kts
Gust
kts
20/11:30pm 11.4 7.8 9.7 89 0.9 WNW 19 20 10 11 1026.5 1026.5 0.0
20/11:00pm 11.6 8.5 10.2 91 0.7 WNW 17 20 9 11 1026.5 1026.5 0.0
20/10:30pm 11.8 9.1 10.4 91 0.7 NW 15 17 8 9 1026.4 1026.4 0.0
20/10:00pm 11.9 9.6 10.3 90 0.8 NW 13 17 7 9 1026.4 1026.4 0.0
20/09:30pm 12.2 11.2 10.4 89 0.9 N 6 7 3 4 1026.6 1026.6 0.0
20/09:00pm 12.3 11.4 10.5 89 0.9 N 6 7 3 4 1026.5 1026.5 0.0
20/08:30pm 12.2 11.2 10.3 88 1.0 NW 6 7 3 4 1026.3 1026.3 0.0
20/08:00pm 12.3 12.4 10.0 86 1.2 CALM 0 2 0 1 1026.2 1026.2 0.0
20/07:30pm 12.4 11.7 10.0 85 1.2 NW 4 6 2 3 1026.0 1026.0 0.0
20/07:00pm 12.6 11.3 10.0 84 1.3 SW 7 9 4 5 1025.6 1025.6 0.0
20/06:30pm 12.8 10.8 10.0 83 1.4 SW 11 15 6 8 1025.2 1025.2 0.0
20/06:00pm 12.8 10.0 10.0 83 1.4 SW 15 19 8 10 1025.0 1025.0 0.0
20/05:30pm 13.1 9.9 10.1 82 1.5 SW 17 20 9 11 1024.8 1024.8 0.0
20/05:00pm 13.2 10.3 9.8 80 1.7 SW 15 20 8 11 1024.5 1024.5 0.0
20/04:30pm 13.3 10.5 10.1 81 1.6 SSW 15 20 8 11 1024.3 1024.3 0.0

Other Formats:

Comma delimited format used in spreadsheet applications
http://www.bom.gov.au/fwo/IDS60801/IDS60801.94822.axf

JavaScript Object Notation format (JSON) in row-major order
http://www.bom.gov.au/fwo/IDS60801/IDS60801.94822.json